Time;durP1;ratioP1;P1;durP2;ratioP2;P2;SDS_P1;SDS_P2;PMS_P1;PMS_P2;Temp;Humidity;BMP_temperature;BMP_pressure;BME280_temperature;BME280_humidity;BME280_pressure;Samples;Min_cycle;Max_cycle;Signal;HPM_P1;HPM_P2
2023/01/02 00:00:44;;;;;;;65.13;58.08;;;;;;;3.16;100.00;102437.88;5043228;28;20049;-81
2023/01/02 00:03:12;;;;;;;72.57;56.50;;;;;;;2.76;100.00;102434.75;5043758;28;20119;-79
2023/01/02 00:05:38;;;;;;;65.43;55.17;;;;;;;2.44;100.00;102429.22;5043160;28;20053;-80
2023/01/02 00:08:05;;;;;;;60.28;53.67;;;;;;;2.62;100.00;102437.53;5045570;28;20445;-79
2023/01/02 00:10:32;;;;;;;65.68;53.33;;;;;;;2.49;100.00;102433.19;5043829;28;20057;-79
2023/01/02 00:12:59;;;;;;;55.22;50.08;;;;;;;2.92;100.00;102440.53;5045014;28;20061;-78
2023/01/02 00:15:25;;;;;;;57.97;51.88;;;;;;;3.00;100.00;102431.28;5039563;28;20523;-79
2023/01/02 00:17:52;;;;;;;62.47;55.75;;;;;;;2.87;100.00;102440.03;5043895;28;20053;-79
2023/01/02 00:20:20;;;;;;;61.90;52.40;;;;;;;3.32;100.00;102441.97;5045438;28;20057;-83
2023/01/02 00:22:47;;;;;;;65.65;56.42;;;;;;;2.86;100.00;102434.91;5049765;28;20056;-80
2023/01/02 00:25:14;;;;;;;65.10;53.90;;;;;;;3.08;100.00;102436.75;5034427;28;20049;-79
2023/01/02 00:27:40;;;;;;;62.25;52.85;;;;;;;2.89;100.00;102432.88;5045082;28;20482;-78
2023/01/02 00:30:08;;;;;;;63.95;56.97;;;;;;;2.59;100.00;102430.72;5039860;28;20362;-82
2023/01/02 00:32:35;;;;;;;56.20;49.83;;;;;;;2.65;100.00;102442.56;5043348;28;20045;-79
2023/01/02 00:35:02;;;;;;;58.10;52.13;;;;;;;2.97;100.00;102416.59;5041691;28;20049;-79
2023/01/02 00:37:30;;;;;;;56.33;50.92;;;;;;;2.90;100.00;102433.72;5044778;28;20042;-79
2023/01/02 00:39:56;;;;;;;54.88;49.97;;;;;;;2.59;100.00;102429.91;5044168;28;20092;-80
2023/01/02 00:42:23;;;;;;;55.92;49.97;;;;;;;2.58;100.00;102423.00;5039908;28;20134;-80
2023/01/02 00:44:50;;;;;;;60.90;55.25;;;;;;;2.86;100.00;102424.41;5039574;28;20058;-80
2023/01/02 00:47:17;;;;;;;57.65;51.65;;;;;;;2.96;100.00;102420.97;5043824;28;20045;-79
2023/01/02 00:49:43;;;;;;;55.70;50.30;;;;;;;2.65;100.00;102426.81;5046103;28;20543;-81
2023/01/02 00:52:10;;;;;;;55.42;49.85;;;;;;;2.93;100.00;102423.81;5043078;28;20045;-80
2023/01/02 00:54:38;;;;;;;57.55;52.30;;;;;;;2.78;100.00;102430.22;5042781;28;20052;-79
2023/01/02 00:57:05;;;;;;;57.45;52.28;;;;;;;2.69;100.00;102420.38;5040215;28;20119;-79
2023/01/02 00:59:32;;;;;;;61.97;56.85;;;;;;;2.67;100.00;102428.38;5038582;28;20482;-79
2023/01/02 01:02:00;;;;;;;54.05;48.88;;;;;;;2.52;100.00;102419.03;5057686;23;20053;-88
2023/01/02 01:04:26;;;;;;;54.53;49.33;;;;;;;2.52;100.00;102417.22;5038948;28;20064;-88
2023/01/02 01:06:53;;;;;;;55.97;51.00;;;;;;;2.56;100.00;102419.63;5037680;28;20041;-89
2023/01/02 01:09:20;;;;;;;55.63;50.40;;;;;;;2.42;100.00;102403.13;5041712;28;20045;-88
2023/01/02 01:11:48;;;;;;;57.88;52.75;;;;;;;2.09;100.00;102405.50;5034060;28;20049;-89
2023/01/02 01:14:16;;;;;;;57.67;52.05;;;;;;;2.16;100.00;102401.53;5042347;28;20053;-89
2023/01/02 01:16:43;;;;;;;58.38;52.83;;;;;;;2.14;100.00;102406.88;5042993;28;20053;-88
2023/01/02 01:19:10;;;;;;;56.75;51.42;;;;;;;2.07;100.00;102403.03;5040616;28;20037;-88
2023/01/02 01:21:37;;;;;;;56.35;50.95;;;;;;;2.02;100.00;102408.56;5042604;28;20042;-88
2023/01/02 01:24:05;;;;;;;55.03;49.92;;;;;;;1.99;100.00;102394.84;5041475;28;20502;-88
2023/01/02 01:26:31;;;;;;;56.20;51.03;;;;;;;2.15;100.00;102403.31;5042920;28;20057;-88
2023/01/02 01:29:02;;;;;;;54.72;49.83;;;;;;;2.05;100.00;102403.13;5032569;28;20049;-85
2023/01/02 01:31:29;;;;;;;56.17;51.30;;;;;;;1.95;100.00;102404.72;5039572;28;20107;-89
2023/01/02 01:33:55;;;;;;;59.47;54.30;;;;;;;2.27;100.00;102405.06;5037177;28;20041;-88
2023/01/02 01:36:24;;;;;;;56.17;50.40;;;;;;;2.26;100.00;102399.91;5042392;28;20046;-88
2023/01/02 01:38:51;;;;;;;56.30;50.95;;;;;;;2.27;100.00;102396.38;5028601;28;20053;-88
2023/01/02 01:41:22;;;;;;;57.67;51.88;;;;;;;1.92;100.00;102393.63;5042967;28;20110;-88
2023/01/02 01:43:51;;;;;;;55.45;50.03;;;;;;;1.92;100.00;102394.47;5034000;28;20054;-88
2023/01/02 01:46:25;;;;;;;54.17;48.92;;;;;;;2.27;100.00;102389.31;5038863;28;20534;-88
2023/01/02 01:48:57;;;;;;;57.55;52.58;;;;;;;1.96;100.00;102395.91;5033741;28;20045;-88
2023/01/02 01:51:26;;;;;;;;;;;;;;;2.10;100.00;102384.44;5042816;28;20052;-88
2023/01/02 01:53:59;;;;;;;55.80;50.60;;;;;;;2.17;100.00;102390.09;5041555;28;20403;-88
2023/01/02 01:56:26;;;;;;;52.80;48.00;;;;;;;2.34;100.00;102394.13;5043099;28;20049;-88
2023/01/02 01:58:53;;;;;;;56.92;51.47;;;;;;;2.09;100.00;102392.41;5042038;28;20396;-88
2023/01/02 02:01:21;;;;;;;57.50;52.33;;;;;;;2.16;100.00;102381.38;5037287;28;20038;-88
2023/01/02 02:03:50;;;;;;;59.05;53.95;;;;;;;2.33;100.00;102390.69;5028782;28;20049;-88
2023/01/02 02:06:19;;;;;;;52.05;47.33;;;;;;;2.39;100.00;102384.13;5045489;28;20041;-88
2023/01/02 02:08:52;;;;;;;55.28;50.10;;;;;;;2.33;100.00;102385.44;5044693;28;20050;-88
2023/01/02 02:11:19;;;;;;;56.67;51.53;;;;;;;2.33;100.00;102382.81;5042815;28;20069;-88
2023/01/02 02:16:39;;;;;;;52.85;47.85;;;;;;;2.19;100.00;102382.97;5075510;27;20403;-80
2023/01/02 02:19:45;;;;;;;51.55;46.97;;;;;;;2.36;100.00;102382.59;5076300;28;20040;-81
2023/01/02 02:22:35;;;;;;;51.35;46.88;;;;;;;2.39;100.00;102384.13;5079400;28;20121;-80
2023/01/02 02:25:38;;;;;;;54.28;49.53;;;;;;;2.42;100.00;102383.91;5072013;28;20113;-81
2023/01/02 02:28:33;;;;;;;56.10;50.92;;;;;;;2.35;100.00;102386.13;5070325;28;20052;-79
2023/01/02 02:31:11;;;;;;;60.35;55.03;;;;;;;2.23;100.00;102377.38;5069639;28;20112;-80
2023/01/02 02:33:47;;;;;;;67.97;62.70;;;;;;;2.28;100.00;102372.63;5077721;28;20133;-80
2023/01/02 02:36:19;;;;;;;70.57;64.75;;;;;;;2.09;100.00;102372.31;5074395;28;20045;-80
2023/01/02 02:38:59;;;;;;;80.78;73.55;;;;;;;2.15;100.00;102371.88;5078202;28;20044;-80
2023/01/02 02:41:40;;;;;;;68.18;61.88;;;;;;;2.63;100.00;102371.00;5075923;28;20133;-80
2023/01/02 02:44:20;;;;;;;79.00;72.10;;;;;;;2.55;100.00;102368.13;5082427;28;20074;-81
2023/01/02 02:46:56;;;;;;;73.80;67.13;;;;;;;2.39;100.00;102373.63;5076067;28;20059;-80
2023/01/02 02:49:34;;;;;;;75.03;68.72;;;;;;;2.27;100.00;102364.91;5079921;28;20044;-80
2023/01/02 02:52:07;;;;;;;55.55;50.33;;;;;;;1.98;100.00;102369.59;5079819;28;20044;-81
2023/01/02 02:54:42;;;;;;;62.33;56.42;;;;;;;2.11;100.00;102369.56;5076885;28;20044;-81
2023/01/02 02:57:10;;;;;;;63.60;57.72;;;;;;;2.00;100.00;102365.94;5070280;28;20053;-81
2023/01/02 02:59:39;;;;;;;58.67;53.08;;;;;;;2.02;100.00;102365.81;5080019;28;20476;-80
2023/01/02 03:02:07;;;;;;;55.30;50.22;;;;;;;2.01;100.00;102345.78;5071021;28;20480;-80
2023/01/02 03:04:34;;;;;;;58.28;53.08;;;;;;;1.79;100.00;102351.75;5080752;28;20052;-81
2023/01/02 03:07:11;;;;;;;60.00;54.33;;;;;;;1.71;100.00;102365.38;5077472;28;20040;-82
2023/01/02 03:09:46;;;;;;;55.03;50.13;;;;;;;1.56;100.00;102356.78;5072640;28;20439;-80
2023/01/02 03:12:23;;;;;;;60.85;54.95;;;;;;;1.79;100.00;102360.44;5071050;28;20057;-81
2023/01/02 03:14:57;;;;;;;54.90;49.47;;;;;;;2.00;100.00;102362.47;5080070;28;20105;-79
2023/01/02 03:17:33;;;;;;;53.35;48.33;;;;;;;1.72;100.00;102361.78;5080073;28;20127;-80
2023/01/02 03:20:06;;;;;;;55.03;49.78;;;;;;;2.06;100.00;102356.81;5069161;28;20400;-79
2023/01/02 03:22:38;;;;;;;60.20;54.60;;;;;;;1.83;100.00;102356.63;5069244;28;20131;-80
2023/01/02 03:25:07;;;;;;;60.47;54.72;;;;;;;2.10;100.00;102360.03;5069648;28;20473;-81
2023/01/02 03:27:37;;;;;;;55.75;50.35;;;;;;;2.18;100.00;102361.16;5069831;28;20052;-79
2023/01/02 03:30:07;;;;;;;54.05;48.80;;;;;;;2.22;100.00;102367.00;5064144;28;20466;-80
2023/01/02 03:32:40;;;;;;;62.33;56.72;;;;;;;2.10;100.00;102378.38;5064407;28;20567;-80
2023/01/02 03:35:13;;;;;;;65.95;60.28;;;;;;;1.93;100.00;102376.94;5065469;28;20110;-80
2023/01/02 03:37:44;;;;;;;55.13;50.10;;;;;;;1.99;100.00;102369.47;5061728;28;20479;-81
2023/01/02 03:40:18;;;;;;;55.92;50.42;;;;;;;2.19;100.00;102369.84;5062412;28;20114;-80
2023/01/02 03:42:50;;;;;;;60.38;55.20;;;;;;;2.01;100.00;102379.88;5055635;28;20048;-80
2023/01/02 03:45:22;;;;;;;56.78;51.33;;;;;;;2.13;100.00;102389.47;5066780;28;20122;-79
2023/01/02 03:47:55;;;;;;;55.95;51.05;;;;;;;2.06;100.00;102385.63;5060852;28;20402;-79
2023/01/02 03:50:27;;;;;;;56.65;51.47;;;;;;;1.71;100.00;102393.34;5066729;28;20114;-80
2023/01/02 03:52:55;;;;;;;57.28;52.17;;;;;;;1.68;100.00;102391.78;5066813;28;20477;-79
2023/01/02 03:55:25;;;;;;;53.13;48.42;;;;;;;1.68;100.00;102383.91;5060345;28;20045;-81
2023/01/02 03:57:59;;;;;;;52.90;48.30;;;;;;;1.70;100.00;102387.28;5056145;28;20056;-79
2023/01/02 04:00:34;;;;;;;55.28;50.35;;;;;;;1.71;100.00;102394.19;5064613;28;20052;-80
2023/01/02 04:03:09;;;;;;;54.88;49.78;;;;;;;1.56;100.00;102398.69;5059697;28;20102;-80
2023/01/02 04:05:42;;;;;;;53.47;48.90;;;;;;;1.43;100.00;102397.88;5066555;28;20041;-80
2023/01/02 04:08:13;;;;;;;54.78;50.22;;;;;;;1.32;100.00;102409.06;5063961;28;20041;-81
2023/01/02 04:10:44;;;;;;;57.80;52.83;;;;;;;1.36;100.00;102409.69;5057318;28;20473;-79
2023/01/02 04:13:19;;;;;;;52.42;47.47;;;;;;;1.21;100.00;102403.75;5056422;28;20048;-80
2023/01/02 04:15:48;;;;;;;53.70;49.05;;;;;;;1.22;100.00;102407.19;5064048;28;20053;-82
2023/01/02 04:18:23;;;;;;;57.08;52.38;;;;;;;1.00;100.00;102405.16;5056954;28;20169;-80
2023/01/02 04:20:53;;;;;;;60.55;55.20;;;;;;;0.89;100.00;102396.25;5064641;28;20053;-81
2023/01/02 04:23:26;;;;;;;56.00;50.60;;;;;;;0.84;100.00;102410.56;5064249;28;20121;-79
2023/01/02 04:26:00;;;;;;;54.17;49.20;;;;;;;0.88;100.00;102405.06;5072279;28;20048;-83
2023/01/02 04:28:29;;;;;;;53.53;48.80;;;;;;;0.85;100.00;102415.72;5064578;28;20049;-79
2023/01/02 04:31:03;;;;;;;58.72;53.63;;;;;;;0.69;100.00;102410.63;5064427;28;20048;-79
2023/01/02 04:33:37;;;;;;;56.80;51.85;;;;;;;0.77;100.00;102415.38;5064349;28;20455;-81
2023/01/02 04:36:08;;;;;;;53.78;49.08;;;;;;;0.78;100.00;102427.50;5063713;28;20044;-80
2023/01/02 04:38:35;;;;;;;53.03;48.20;;;;;;;0.73;100.00;102419.13;5053490;28;20057;-80
2023/01/02 04:41:02;;;;;;;53.47;48.75;;;;;;;0.62;100.00;102419.81;5054610;28;20451;-80
2023/01/02 04:43:29;;;;;;;54.67;49.40;;;;;;;0.66;100.00;102425.69;5054312;28;20115;-82
2023/01/02 04:45:56;;;;;;;56.00;50.90;;;;;;;0.49;100.00;102423.34;5054178;28;20045;-79
2023/01/02 04:48:23;;;;;;;60.05;54.60;;;;;;;0.54;100.00;102419.47;5064818;28;20106;-80
2023/01/02 04:50:53;;;;;;;60.45;54.63;;;;;;;0.58;100.00;102420.13;5066869;28;20052;-80
2023/01/02 04:53:20;;;;;;;61.20;54.83;;;;;;;0.51;100.00;102427.50;5058924;28;20386;-79
2023/01/02 04:55:47;;;;;;;62.10;54.83;;;;;;;0.49;100.00;102424.19;5059889;28;20558;-79
2023/01/02 04:58:13;;;;;;;65.90;58.45;;;;;;;0.41;100.00;102429.88;5056726;28;20048;-80
2023/01/02 05:00:40;;;;;;;71.38;57.97;;;;;;;0.57;100.00;102421.06;5063611;28;20076;-79
2023/01/02 05:03:07;;;;;;;60.28;53.58;;;;;;;0.40;100.00;102428.22;5053993;28;20041;-79
2023/01/02 05:05:33;;;;;;;59.92;53.35;;;;;;;0.30;100.00;102421.03;5063121;28;20509;-79
2023/01/02 05:08:02;;;;;;;57.13;51.58;;;;;;;0.51;100.00;102432.75;5062020;28;20057;-79
2023/01/02 05:10:28;;;;;;;56.22;50.65;;;;;;;0.42;100.00;102426.34;5061883;28;20114;-80
2023/01/02 05:12:58;;;;;;;53.40;48.42;;;;;;;0.44;100.00;102423.63;5072774;28;20045;-79
2023/01/02 05:15:25;;;;;;;57.47;51.85;;;;;;;0.33;100.00;102428.69;5062597;28;20048;-78
2023/01/02 05:17:51;;;;;;;55.00;50.03;;;;;;;0.28;100.00;102438.63;5056099;28;20478;-82
2023/01/02 05:20:18;;;;;;;141.20;73.10;;;;;;;0.29;100.00;102433.28;5066025;28;20106;-79
2023/01/02 05:25:33;;;;;;;118.78;71.72;;;;;;;0.29;100.00;102435.91;5054723;28;20059;-83
2023/01/02 05:28:00;;;;;;;78.55;60.47;;;;;;;0.20;100.00;102447.75;5053313;28;20083;-80
2023/01/02 05:30:27;;;;;;;63.33;55.92;;;;;;;0.29;100.00;102441.13;5054035;28;20408;-80
2023/01/02 05:32:54;;;;;;;56.15;50.33;;;;;;;0.25;100.00;102449.28;5053139;28;20061;-79
2023/01/02 05:35:21;;;;;;;55.28;50.13;;;;;;;0.38;100.00;102439.69;5053197;28;20532;-80
2023/01/02 05:37:47;;;;;;;63.80;54.35;;;;;;;0.42;100.00;102449.88;5058690;28;20052;-79
2023/01/02 05:40:14;;;;;;;60.42;54.30;;;;;;;0.23;100.00;102455.41;5065754;28;20048;-82
2023/01/02 05:42:42;;;;;;;56.70;50.78;;;;;;;0.16;100.00;102456.75;5057045;28;20110;-79
2023/01/02 05:45:09;;;;;;;54.17;48.85;;;;;;;0.00;100.00;102461.25;5053580;28;20041;-80
2023/01/02 05:47:36;;;;;;;53.72;48.60;;;;;;;-0.05;100.00;102456.28;5052535;28;20067;-79
2023/01/02 05:50:03;;;;;;;55.47;49.60;;;;;;;0.13;100.00;102466.53;5064083;28;20401;-80
2023/01/02 05:52:30;;;;;;;54.17;49.08;;;;;;;0.16;100.00;102456.75;5060199;28;20459;-79
2023/01/02 05:54:56;;;;;;;54.05;48.72;;;;;;;0.09;100.00;102459.81;5063604;28;20114;-79
2023/01/02 05:57:23;;;;;;;58.03;51.90;;;;;;;0.06;100.00;102462.63;5059420;28;20446;-79
2023/01/02 05:59:51;;;;;;;59.75;53.72;;;;;;;0.03;100.00;102463.66;5063357;28;20049;-79
2023/01/02 06:02:18;;;;;;;57.45;51.55;;;;;;;0.03;100.00;102455.84;5063407;28;20110;-80
2023/01/02 06:04:45;;;;;;;62.05;55.50;;;;;;;0.02;100.00;102454.13;5062256;28;20048;-80
2023/01/02 06:07:12;;;;;;;73.82;64.45;;;;;;;0.19;100.00;102451.31;5062746;28;20048;-79
2023/01/02 06:09:39;;;;;;;66.45;57.58;;;;;;;0.33;100.00;102453.06;5061506;28;20044;-80
2023/01/02 06:12:06;;;;;;;67.05;58.50;;;;;;;0.65;100.00;102453.63;5053448;28;20451;-80
2023/01/02 06:17:13;;;;;;;59.70;53.22;;;;;;;1.27;100.00;102457.44;5070773;27;20402;-82
2023/01/02 06:19:40;;;;;;;55.72;50.28;;;;;;;1.58;100.00;102475.41;5045943;28;20045;-84
2023/01/02 06:22:07;;;;;;;59.08;53.28;;;;;;;1.95;100.00;102459.75;5039426;28;20481;-81
2023/01/02 06:24:34;;;;;;;55.15;49.90;;;;;;;2.28;100.00;102468.81;5050760;28;20049;-79
2023/01/02 06:27:00;;;;;;;52.38;47.88;;;;;;;2.69;100.00;102470.25;5048021;28;20110;-78
2023/01/02 06:29:27;;;;;;;52.42;47.55;;;;;;;3.37;100.00;102450.34;5039234;28;20054;-79
2023/01/02 06:31:54;;;;;;;51.25;46.88;;;;;;;3.64;100.00;102464.00;5040189;28;20048;-79
2023/01/02 06:34:22;;;;;;;52.72;48.40;;;;;;;4.18;100.00;102467.72;5044609;28;20053;-79
2023/01/02 06:36:49;;;;;;;54.08;49.33;;;;;;;4.06;100.00;102464.25;5045666;28;20041;-80
2023/01/02 06:39:15;;;;;;;54.20;49.40;;;;;;;3.93;100.00;102460.88;5048172;28;20455;-80
2023/01/02 06:41:42;;;;;;;59.55;53.40;;;;;;;4.56;100.00;102456.72;5050601;28;20049;-81
2023/01/02 06:44:12;;;;;;;67.95;60.55;;;;;;;4.55;100.00;102449.81;5049752;28;20459;-80
2023/01/02 06:46:39;;;;;;;68.10;60.75;;;;;;;4.95;100.00;102450.97;5052693;28;20040;-79
2023/01/02 06:49:05;;;;;;;70.47;63.38;;;;;;;5.45;100.00;102462.56;5047652;28;20073;-81
2023/01/02 06:51:33;;;;;;;62.13;56.22;;;;;;;5.73;100.00;102452.31;5038362;28;20111;-81
2023/01/02 06:54:00;;;;;;;59.70;54.60;;;;;;;5.62;100.00;102461.13;5039018;28;20413;-81
2023/01/02 06:56:27;;;;;;;56.22;51.55;;;;;;;5.38;100.00;102460.56;5046952;28;20111;-79
2023/01/02 06:58:54;;;;;;;56.42;51.42;;;;;;;5.94;100.00;102461.03;5046505;28;20049;-82
2023/01/02 07:01:22;;;;;;;58.72;53.33;;;;;;;5.91;100.00;102457.78;5049770;28;20071;-80
2023/01/02 07:03:49;;;;;;;73.40;66.10;;;;;;;6.24;100.00;102451.41;5044844;28;20527;-78
2023/01/02 07:06:18;;;;;;;66.10;59.13;;;;;;;6.42;100.00;102456.88;5042766;28;20049;-80
2023/01/02 07:08:46;;;;;;;60.67;55.20;;;;;;;7.19;100.00;102457.84;5038644;28;20058;-83
2023/01/02 07:11:15;;;;;;;58.78;53.75;;;;;;;6.86;100.00;102460.78;5046028;28;20045;-80
2023/01/02 07:13:45;;;;;;;57.65;52.88;;;;;;;7.11;100.00;102453.28;5045364;28;20093;-80
2023/01/02 07:16:13;;;;;;;55.58;51.08;;;;;;;7.35;100.00;102455.47;5039522;28;20433;-80
2023/01/02 07:18:41;;;;;;;53.60;49.60;;;;;;;7.85;100.00;102455.19;5042652;28;20038;-79
2023/01/02 07:21:09;;;;;;;54.78;50.78;;;;;;;8.14;100.00;102443.59;5041716;28;20115;-80
2023/01/02 07:23:36;;;;;;;54.33;50.42;;;;;;;7.80;100.00;102457.41;5044794;28;20122;-81
2023/01/02 07:26:06;;;;;;;53.78;49.72;;;;;;;8.08;100.00;102446.84;5046189;28;20127;-80
2023/01/02 07:28:34;;;;;;;53.20;49.30;;;;;;;8.24;100.00;102450.53;5030678;28;20057;-79
2023/01/02 07:31:02;;;;;;;56.88;52.28;;;;;;;8.97;100.00;102451.44;5031465;28;20104;-79
2023/01/02 07:33:31;;;;;;;54.60;50.13;;;;;;;9.21;100.00;102456.09;5037786;28;20494;-80
2023/01/02 07:35:59;;;;;;;53.70;49.45;;;;;;;9.11;100.00;102453.56;5039495;28;20444;-80
2023/01/02 07:38:28;;;;;;;55.60;51.47;;;;;;;9.78;100.00;102462.59;5025257;28;20050;-80
2023/01/02 07:40:56;;;;;;;54.92;50.72;;;;;;;9.97;100.00;102460.69;5021947;28;20069;-80
2023/01/02 07:43:25;;;;;;;50.35;46.65;;;;;;;9.49;100.00;102462.91;5035295;28;20042;-80
2023/01/02 07:45:52;;;;;;;51.60;47.70;;;;;;;9.99;100.00;102458.72;5032019;28;20050;-81
2023/01/02 07:48:19;;;;;;;51.80;48.00;;;;;;;10.03;100.00;102450.25;5027929;28;20182;-80
2023/01/02 07:50:45;;;;;;;54.22;49.97;;;;;;;10.15;100.00;102453.47;5030521;28;20057;-79
2023/01/02 07:53:13;;;;;;;58.10;52.88;;;;;;;10.12;100.00;102447.66;5029509;28;20115;-79
2023/01/02 07:55:39;;;;;;;54.60;50.10;;;;;;;10.71;100.00;102446.66;5033896;28;20049;-81
2023/01/02 07:58:06;;;;;;;53.90;49.63;;;;;;;10.90;100.00;102439.34;5029169;28;20533;-80
2023/01/02 08:00:34;;;;;;;52.38;48.65;;;;;;;10.81;100.00;102453.66;5025771;28;20053;-81
2023/01/02 08:03:01;;;;;;;51.40;47.80;;;;;;;10.82;100.00;102452.63;5021656;28;20112;-81
2023/01/02 08:05:28;;;;;;;55.95;51.67;;;;;;;11.02;100.00;102442.50;5026252;28;20135;-81
2023/01/02 08:07:54;;;;;;;53.30;49.20;;;;;;;11.19;100.00;102446.81;5023827;28;20375;-79
2023/01/02 08:10:21;;;;;;;51.10;47.47;;;;;;;11.67;100.00;102445.88;5034246;28;20079;-81
2023/01/02 08:12:48;;;;;;;52.38;48.55;;;;;;;12.64;100.00;102447.44;5036722;28;20143;-80
2023/01/02 08:15:15;;;;;;;51.45;48.03;;;;;;;12.64;100.00;102439.44;5037893;28;20126;-79
2023/01/02 08:17:43;;;;;;;52.13;48.53;;;;;;;13.15;100.00;102445.84;5027576;28;20115;-79
2023/01/02 08:20:11;;;;;;;51.75;48.15;;;;;;;13.28;100.00;102440.78;5026767;28;20107;-81
2023/01/02 08:22:38;;;;;;;52.58;48.88;;;;;;;13.96;100.00;102438.81;5023782;28;20072;-80
2023/01/02 08:25:07;;;;;;;52.80;48.92;;;;;;;13.80;100.00;102441.72;5030877;28;20049;-80
2023/01/02 08:27:34;;;;;;;51.35;47.88;;;;;;;13.28;100.00;102430.09;5029050;28;20470;-80
2023/01/02 08:30:03;;;;;;;53.17;49.42;;;;;;;14.04;100.00;102434.38;5027463;28;20481;-80
2023/01/02 08:32:30;;;;;;;72.00;65.22;;;;;;;14.52;100.00;102424.88;5022761;28;20045;-81
2023/01/02 08:34:59;;;;;;;55.35;51.17;;;;;;;14.21;100.00;102431.31;5023111;28;20050;-80
2023/01/02 08:37:25;;;;;;;58.83;54.17;;;;;;;14.13;100.00;102417.22;5031086;28;20574;-80
2023/01/02 08:39:52;;;;;;;61.58;56.88;;;;;;;14.63;100.00;102428.91;5030290;28;20045;-80
2023/01/02 08:42:19;;;;;;;54.03;50.22;;;;;;;15.17;100.00;102414.13;5034063;28;20466;-79
2023/01/02 08:44:46;;;;;;;52.67;49.08;;;;;;;15.02;100.00;102412.38;5025523;28;20062;-80
2023/01/02 08:47:12;;;;;;;52.58;49.00;;;;;;;16.08;100.00;102411.31;5031361;28;20500;-80
2023/01/02 08:49:39;;;;;;;52.63;48.92;;;;;;;16.23;100.00;102412.81;5030365;28;20049;-80
2023/01/02 08:52:07;;;;;;;52.85;49.10;;;;;;;16.14;100.00;102407.84;5023577;28;20433;-81
2023/01/02 08:54:35;;;;;;;52.90;49.35;;;;;;;16.65;100.00;102413.50;5024653;28;20053;-81
2023/01/02 08:57:01;;;;;;;54.88;50.58;;;;;;;16.66;100.00;102401.72;5027705;28;20049;-81
2023/01/02 08:59:28;;;;;;;54.88;51.08;;;;;;;16.38;100.00;102401.91;5028060;28;20061;-81
2023/01/02 09:01:55;;;;;;;97.53;89.88;;;;;;;16.96;100.00;102395.16;5023350;28;20474;-81
2023/01/02 09:04:22;;;;;;;54.95;51.08;;;;;;;17.48;100.00;102388.84;5027934;28;20131;-81
2023/01/02 09:06:48;;;;;;;52.58;49.00;;;;;;;17.73;100.00;102397.06;5027009;28;20111;-81
2023/01/02 09:09:17;;;;;;;52.33;48.83;;;;;;;18.01;100.00;102388.69;5028892;28;20050;-82
2023/01/02 09:11:48;;;;;;;56.45;52.55;;;;;;;17.44;100.00;102381.44;5023679;28;20520;-83
2023/01/02 09:14:16;;;;;;;53.63;49.80;;;;;;;17.96;100.00;102387.66;5023075;28;20064;-80
2023/01/02 09:16:43;;;;;;;55.05;51.13;;;;;;;17.95;100.00;102369.91;5023809;28;20057;-82
2023/01/02 09:19:10;;;;;;;54.47;50.78;;;;;;;18.31;100.00;102370.09;5019984;28;20446;-82
2023/01/02 09:21:37;;;;;;;54.20;50.40;;;;;;;19.18;97.67;102372.91;5022274;28;20115;-82
2023/01/02 09:24:03;;;;;;;55.53;51.65;;;;;;;20.10;86.68;102374.69;5022159;28;20115;-81
2023/01/02 09:26:32;;;;;;;54.83;51.22;;;;;;;20.06;91.78;102368.09;5026657;28;20493;-81
2023/01/02 09:28:58;;;;;;;71.47;64.38;;;;;;;19.96;87.70;102363.25;5018882;28;20038;-81
2023/01/02 09:31:25;;;;;;;71.07;64.47;;;;;;;20.64;85.71;102351.25;5025074;28;20042;-81
2023/01/02 09:33:54;;;;;;;55.22;51.15;;;;;;;20.37;81.35;102358.94;5025434;28;20119;-83
2023/01/02 09:36:22;;;;;;;143.68;109.05;;;;;;;20.67;80.97;102355.38;5024298;28;20144;-80
2023/01/02 09:38:53;;;;;;;58.70;53.90;;;;;;;20.76;80.10;102343.16;5023448;28;20111;-81
2023/01/02 09:41:27;;;;;;;65.25;59.15;;;;;;;20.41;66.30;102343.91;5022837;28;20050;-81
2023/01/02 09:43:59;;;;;;;58.15;53.65;;;;;;;20.07;81.39;102342.78;5021179;28;20049;-80
2023/01/02 09:46:32;;;;;;;57.95;53.65;;;;;;;21.42;73.95;102343.78;5021815;28;20112;-79
2023/01/02 09:49:00;;;;;;;56.85;52.70;;;;;;;21.25;71.60;102330.19;5026485;28;20054;-80
2023/01/02 09:51:27;;;;;;;55.92;52.13;;;;;;;21.42;74.84;102336.53;5027955;28;20053;-81
2023/01/02 09:53:54;;;;;;;57.40;53.30;;;;;;;20.35;52.49;102321.38;5027869;28;20461;-82
2023/01/02 09:56:24;;;;;;;56.70;52.72;;;;;;;19.65;56.14;102331.97;5026318;28;20049;-82
2023/01/02 09:58:56;;;;;;;55.47;51.25;;;;;;;20.03;94.97;102331.66;5019191;28;20112;-81
2023/01/02 10:01:35;;;;;;;63.22;58.47;;;;;;;14.68;83.84;102337.41;5028300;28;20053;-82
2023/01/02 10:04:15;;;;;;;60.47;56.28;;;;;;;14.91;100.00;102323.78;5027092;28;20120;-79
2023/01/02 10:06:48;;;;;;;55.42;51.50;;;;;;;15.06;100.00;102317.28;5016018;28;20054;-80
2023/01/02 10:09:22;;;;;;;58.97;54.45;;;;;;;13.74;100.00;102324.97;5021332;28;20057;-80
2023/01/02 10:11:56;;;;;;;57.55;53.22;;;;;;;14.60;100.00;102319.66;5026730;28;20041;-80
2023/01/02 10:14:33;;;;;;;53.40;49.80;;;;;;;15.65;100.00;102323.97;5024942;28;20470;-81
2023/01/02 10:17:05;;;;;;;52.88;49.38;;;;;;;17.78;92.63;102305.06;5023511;28;20460;-80
2023/01/02 10:19:40;;;;;;;51.72;48.22;;;;;;;21.14;78.49;102304.00;5025786;28;20474;-81
2023/01/02 10:22:09;;;;;;;53.60;49.80;;;;;;;19.20;94.36;102300.75;5023907;28;20042;-83
2023/01/02 10:24:44;;;;;;;56.22;52.22;;;;;;;14.84;87.77;102313.88;5013909;28;20057;-80
2023/01/02 10:27:16;;;;;;;53.60;50.10;;;;;;;18.20;96.48;102308.09;5019072;28;20046;-80
2023/01/02 10:29:48;;;;;;;55.50;51.65;;;;;;;15.93;88.07;102312.34;5029762;28;20470;-81
2023/01/02 10:32:18;;;;;;;54.72;51.03;;;;;;;16.31;100.00;102293.84;5025710;28;20150;-80
2023/01/02 10:34:59;;;;;;;56.30;52.20;;;;;;;17.08;100.00;102300.38;5029936;28;20049;-81
2023/01/02 10:37:27;;;;;;;53.75;50.05;;;;;;;16.45;93.74;102302.69;5026887;28;20156;-81
2023/01/02 10:39:54;;;;;;;53.25;49.75;;;;;;;16.88;100.00;102294.22;5024702;28;20120;-81
2023/01/02 10:42:22;;;;;;;54.50;50.70;;;;;;;15.43;100.00;102288.47;5036088;28;20567;-84
2023/01/02 10:44:50;;;;;;;53.05;49.45;;;;;;;15.16;99.92;102292.00;5022308;28;20449;-80
2023/01/02 10:47:22;;;;;;;54.28;50.50;;;;;;;15.86;100.00;102287.38;5023765;28;20461;-80
2023/01/02 10:49:52;;;;;;;52.92;49.13;;;;;;;15.93;99.41;102296.25;5022794;28;20145;-80
2023/01/02 10:52:25;;;;;;;56.55;52.75;;;;;;;14.20;100.00;102282.69;5022463;28;20062;-79
2023/01/02 10:54:53;;;;;;;56.78;52.53;;;;;;;15.65;100.00;102275.75;5023431;28;20547;-80
2023/01/02 10:57:26;;;;;;;55.88;51.55;;;;;;;15.99;100.00;102274.81;5017907;28;20054;-80
2023/01/02 10:59:55;;;;;;;54.63;50.63;;;;;;;16.29;100.00;102277.13;5025442;28;20405;-81
2023/01/02 11:02:29;;;;;;;54.53;50.97;;;;;;;17.46;100.00;102278.13;5019442;28;20050;-82
2023/01/02 11:05:01;;;;;;;55.40;51.60;;;;;;;17.91;100.00;102271.91;5022148;28;20058;-82
2023/01/02 11:07:31;;;;;;;53.45;49.85;;;;;;;17.49;100.00;102285.78;5025708;28;20426;-80
2023/01/02 11:09:58;;;;;;;56.95;53.13;;;;;;;18.17;100.00;102270.91;5024810;28;20131;-81
2023/01/02 11:12:25;;;;;;;57.42;53.50;;;;;;;20.79;83.40;102267.09;5020330;28;20049;-81
2023/01/02 11:14:52;;;;;;;58.60;54.75;;;;;;;17.23;100.00;102270.59;5022533;28;20486;-80
2023/01/02 11:17:22;;;;;;;59.78;55.78;;;;;;;19.32;90.90;102254.22;5026568;28;20050;-82
2023/01/02 11:19:53;;;;;;;60.35;56.38;;;;;;;18.56;98.58;102260.84;5029863;28;20053;-81
2023/01/02 11:22:22;;;;;;;60.60;56.58;;;;;;;18.70;86.15;102257.00;5023697;28;20119;-81
2023/01/02 11:24:55;;;;;;;59.22;55.33;;;;;;;19.32;92.51;102249.66;5033224;28;20481;-81